Terminal Aerodrome Forecast
Issued by NWS

Home | Current Version | Previous Version | Text Only | Print | Product List | Glossary On
Versions: 1 2 3 4 5 6 7 8 9 10 11 12 13 14 15 16 17 18 19
000
FTUS44 KSJT 201300 AAA
TAFJCT
TAF AMD
KJCT 201335Z 2014/2112 VRB03KT 5SM BR SCT012
      TEMPO 2014/2015 6SM BR BKN015
     FM201500 VRB04KT P6SM SCT015
     FM201700 12007KT P6SM SCT040 BKN250=

USA.gov is the U.S. government's official web portal to all federal, state and local government web resources and services.